Honeydew, California
Current Conditions -  °F | °C
As of 9:15 AM on Sunday 21 Dec 2014 (Local Time) from KFOT Reporting Station
Scattered Clouds Scattered Clouds  
Wind Chill: 55°   Ceiling: Unl
Heat Index: 55°   Visibility: 3mi
Dew Point: 55°   Wind: 3mph
Humidity: 100%   Direction: 130°SE
Pressure: 30.29"   Gusts: NA
Location:  40.24°N, 124.13°W
Report Text: KFOT 211715Z AUTO 13003KT 3SM FEW006 SCT015 13/13 A3029 RMK AO1 P0001
Loading
Personal Weather Stations






























Interactive Weather Map New forecast layout! Learn more

10-Day Weather Forecast

Advertisements
Track Severe Weather on mobile